createdAt,value
2023-05-01T00:00:14.569Z,13.25
2023-05-01T00:02:41.284Z,13.21
2023-05-01T00:05:09.688Z,13.21
2023-05-01T00:07:36.308Z,13.07
2023-05-01T00:10:03.150Z,13.02
2023-05-01T00:12:31.318Z,13.10
2023-05-01T00:14:57.892Z,13.09
2023-05-01T00:17:24.966Z,13.01
2023-05-01T00:19:52.333Z,12.96
2023-05-01T00:22:18.930Z,12.92
2023-05-01T00:24:48.035Z,12.89
2023-05-01T00:27:14.714Z,12.95
2023-05-01T00:29:42.747Z,12.91
2023-05-01T00:32:10.163Z,12.86
2023-05-01T00:34:36.889Z,12.84
2023-05-01T00:37:03.722Z,12.85
2023-05-01T00:39:31.476Z,10.62
2023-05-01T00:41:58.185Z,10.96
2023-05-01T00:44:24.911Z,12.35
2023-05-01T00:46:54.023Z,12.02
2023-05-01T00:49:20.948Z,12.64
2023-05-01T00:51:52.959Z,12.76
2023-05-01T00:54:20.008Z,12.75
2023-05-01T00:56:47.990Z,12.76
2023-05-01T00:59:14.883Z,12.81
2023-05-01T01:01:42.180Z,12.82
2023-05-01T01:04:10.491Z,12.11
2023-05-01T01:06:47.277Z,12.56
2023-05-01T01:09:23.303Z,12.66
2023-05-01T01:11:58.663Z,12.69
2023-05-01T01:14:28.285Z,12.35
2023-05-01T01:16:57.306Z,12.64
2023-05-01T01:19:50.199Z,12.65
2023-05-01T01:22:22.365Z,12.68
2023-05-01T01:25:12.210Z,12.66
2023-05-01T01:28:05.501Z,12.63
2023-05-01T01:30:56.725Z,12.64
2023-05-01T01:33:58.886Z,12.69
2023-05-01T01:36:37.305Z,12.52
2023-05-01T01:39:11.440Z,12.57
2023-05-01T01:41:40.067Z,12.54
2023-05-01T01:44:09.836Z,12.47
2023-05-01T01:46:39.717Z,12.46
2023-05-01T01:49:13.309Z,12.45
2023-05-01T01:51:42.041Z,12.40
2023-05-01T01:54:11.705Z,12.32
2023-05-01T01:56:40.486Z,12.45
2023-05-01T01:59:09.829Z,9.66
2023-05-01T02:01:39.245Z,11.39
2023-05-01T02:04:08.848Z,12.12
2023-05-01T02:06:36.384Z,12.25
2023-05-01T02:09:06.407Z,12.38
2023-05-01T02:11:36.725Z,12.38
2023-05-01T02:14:05.579Z,11.41
2023-05-01T02:16:34.681Z,10.01
2023-05-01T02:19:04.365Z,11.65
2023-05-01T02:21:33.985Z,10.19
2023-05-01T02:24:01.743Z,11.82
2023-05-01T02:26:29.633Z,12.04
2023-05-01T02:28:56.676Z,12.04
2023-05-01T02:31:23.417Z,12.08
2023-05-01T02:33:50.268Z,12.03
2023-05-01T02:36:16.975Z,12.06
2023-05-01T02:38:47.102Z,12.09
2023-05-01T02:41:15.839Z,12.06
2023-05-01T02:43:46.602Z,12.00
2023-05-01T02:46:16.407Z,12.07
2023-05-01T02:48:44.017Z,11.94
2023-05-01T02:51:11.570Z,11.97
2023-05-01T02:53:40.156Z,11.97
2023-05-01T02:56:08.354Z,11.92
2023-05-01T02:58:35.283Z,11.92
2023-05-01T03:01:02.177Z,11.95
2023-05-01T03:03:28.941Z,8.77
2023-05-01T03:05:55.608Z,7.60
2023-05-01T03:08:22.336Z,10.26
2023-05-01T03:10:48.962Z,11.45
2023-05-01T03:13:16.942Z,11.72
2023-05-01T03:15:44.349Z,11.80
2023-05-01T03:18:11.112Z,9.35
2023-05-01T03:20:37.774Z,9.01
2023-05-01T03:23:04.469Z,8.66
2023-05-01T03:25:31.445Z,11.05
2023-05-01T03:27:58.062Z,11.47
2023-05-01T03:30:26.036Z,11.62
2023-05-01T03:32:52.715Z,11.65
2023-05-01T03:35:19.469Z,9.67
2023-05-01T03:37:46.113Z,11.25
2023-05-01T03:40:13.712Z,11.52
2023-05-01T03:42:40.423Z,11.61
2023-05-01T03:45:08.276Z,11.58
2023-05-01T03:47:36.741Z,11.63
2023-05-01T03:50:04.141Z,11.61
2023-05-01T03:52:30.966Z,11.51
2023-05-01T03:54:57.988Z,11.52
2023-05-01T03:57:24.821Z,11.59
2023-05-01T03:59:51.511Z,11.50
2023-05-01T04:02:18.633Z,11.50
2023-05-01T04:04:46.862Z,11.50
2023-05-01T04:07:13.666Z,11.57
2023-05-01T04:09:40.253Z,9.73
2023-05-01T04:12:07.162Z,10.54
2023-05-01T04:14:33.759Z,11.24
2023-05-01T04:17:00.665Z,9.37
2023-05-01T04:19:27.494Z,8.41
2023-05-01T04:21:55.498Z,9.51
2023-05-01T04:24:22.137Z,9.19
2023-05-01T04:26:48.819Z,10.75
2023-05-01T04:29:15.466Z,11.16
2023-05-01T04:31:43.346Z,11.17
2023-05-01T04:34:10.201Z,11.31
2023-05-01T04:36:37.093Z,9.08
2023-05-01T04:39:05.458Z,8.44
2023-05-01T04:41:32.052Z,10.39
2023-05-01T04:43:58.879Z,10.96
2023-05-01T04:46:25.635Z,11.14
2023-05-01T04:48:52.342Z,11.18
2023-05-01T04:51:19.859Z,11.23
2023-05-01T04:53:46.521Z,11.16
2023-05-01T04:56:14.534Z,11.13
2023-05-01T04:58:42.159Z,11.14
2023-05-01T05:01:08.892Z,11.13
2023-05-01T05:03:35.678Z,11.18
2023-05-01T05:06:03.550Z,11.10
2023-05-01T05:08:30.803Z,9.20
2023-05-01T05:10:59.089Z,10.83
2023-05-01T05:13:27.666Z,10.98
2023-05-01T05:15:54.526Z,11.03
2023-05-01T05:18:21.867Z,11.02
2023-05-01T05:20:48.553Z,11.04
2023-05-01T05:23:15.313Z,11.05
2023-05-01T05:25:42.028Z,11.07
2023-05-01T05:28:08.822Z,11.06
2023-05-01T05:30:37.128Z,11.05
2023-05-01T05:33:03.916Z,11.03
2023-05-01T05:35:30.736Z,11.04
2023-05-01T05:37:57.426Z,11.09
2023-05-01T05:40:24.084Z,11.05
2023-05-01T05:42:50.915Z,10.33
2023-05-01T05:45:17.773Z,10.65
2023-05-01T05:47:45.830Z,10.95
2023-05-01T05:50:12.725Z,11.06
2023-05-01T05:52:39.321Z,11.09
2023-05-01T05:55:07.017Z,10.92
2023-05-01T05:57:37.136Z,10.01
2023-05-01T06:00:05.487Z,9.61
2023-05-01T06:02:32.338Z,9.27
2023-05-01T06:05:00.480Z,9.19
2023-05-01T06:07:28.334Z,9.06
2023-05-01T06:09:55.812Z,9.77
2023-05-01T06:12:22.801Z,10.56
2023-05-01T06:14:49.927Z,10.49
2023-05-01T06:17:16.717Z,9.46
2023-05-01T06:19:43.423Z,9.01
2023-05-01T06:22:11.575Z,9.07
2023-05-01T06:24:39.743Z,9.54
2023-05-01T06:27:06.460Z,9.41
2023-05-01T06:29:33.042Z,9.03
2023-05-01T06:31:59.812Z,8.86
2023-05-01T06:34:26.559Z,9.81
2023-05-01T06:36:53.154Z,10.48
2023-05-01T06:39:21.156Z,10.21
2023-05-01T06:41:47.984Z,10.36
2023-05-01T06:44:14.712Z,10.70
2023-05-01T06:46:41.401Z,10.48
2023-05-01T06:49:08.176Z,9.82
2023-05-01T06:51:34.832Z,9.67
2023-05-01T06:54:02.109Z,9.68
2023-05-01T06:56:30.184Z,9.59
2023-05-01T06:58:56.813Z,9.23
2023-05-01T07:01:23.519Z,9.67
2023-05-01T07:03:50.299Z,9.80
2023-05-01T07:06:17.116Z,10.06
2023-05-01T07:08:43.761Z,10.26
2023-05-01T07:11:10.766Z,10.00
2023-05-01T07:13:38.784Z,10.16
2023-05-01T07:16:07.117Z,10.08
2023-05-01T07:18:34.735Z,10.36
2023-05-01T07:21:01.802Z,10.20
2023-05-01T07:23:28.981Z,10.31
2023-05-01T07:25:56.014Z,10.03
2023-05-01T07:28:22.945Z,9.78
2023-05-01T07:30:51.524Z,9.40
2023-05-01T07:33:18.620Z,9.79
2023-05-01T07:35:45.412Z,10.40
2023-05-01T07:38:12.225Z,10.58
2023-05-01T07:40:38.886Z,10.34
2023-05-01T07:43:05.556Z,9.66
2023-05-01T07:45:32.613Z,9.41
2023-05-01T07:48:00.817Z,9.96
2023-05-01T07:50:27.563Z,9.75
2023-05-01T07:52:54.251Z,10.13
2023-05-01T07:55:22.127Z,9.77
2023-05-01T07:57:49.065Z,9.79
2023-05-01T08:00:17.247Z,9.81
2023-05-01T08:02:44.146Z,9.90
2023-05-01T08:05:12.191Z,10.19
2023-05-01T08:07:38.830Z,9.85
2023-05-01T08:10:06.873Z,10.00
2023-05-01T08:12:33.537Z,10.50
2023-05-01T08:15:00.171Z,10.62
2023-05-01T08:17:27.054Z,10.66
2023-05-01T08:19:56.605Z,10.64
2023-05-01T08:22:24.875Z,10.75
2023-05-01T08:24:51.724Z,10.73
2023-05-01T08:27:18.517Z,10.75
2023-05-01T08:29:45.397Z,10.78
2023-05-01T08:32:12.063Z,10.86
2023-05-01T08:34:38.700Z,10.13
2023-05-01T08:37:05.569Z,9.84
2023-05-01T08:39:33.564Z,9.72
2023-05-01T08:42:00.218Z,9.87
2023-05-01T08:44:27.995Z,9.63
2023-05-01T08:47:08.159Z,9.80
2023-05-01T08:49:37.314Z,9.73
2023-05-01T08:52:06.639Z,9.94
2023-05-01T08:54:35.198Z,9.84
2023-05-01T08:57:06.053Z,10.02
2023-05-01T08:59:34.560Z,10.22
2023-05-01T09:02:02.421Z,10.41
2023-05-01T09:04:32.208Z,10.57
2023-05-01T09:07:00.844Z,10.82
2023-05-01T09:09:27.840Z,11.01
2023-05-01T09:11:56.567Z,10.61
2023-05-01T09:14:23.529Z,10.31
2023-05-01T09:16:50.258Z,10.61
2023-05-01T09:19:16.964Z,10.73
2023-05-01T09:21:43.663Z,10.78
2023-05-01T09:24:10.263Z,10.81
2023-05-01T09:26:41.810Z,10.79
2023-05-01T09:29:10.268Z,10.65
2023-05-01T09:31:37.020Z,10.76
2023-05-01T09:34:06.894Z,10.88
2023-05-01T09:36:34.781Z,10.83
2023-05-01T09:39:02.321Z,10.86
2023-05-01T09:41:31.448Z,10.96
2023-05-01T09:43:58.739Z,10.87
2023-05-01T09:46:27.536Z,10.91
2023-05-01T09:48:58.894Z,10.98
2023-05-01T09:51:27.180Z,10.91
2023-05-01T09:53:56.412Z,10.65
2023-05-01T09:56:23.973Z,10.29
2023-05-01T09:58:52.053Z,10.25
2023-05-01T10:01:19.480Z,10.39
2023-05-01T10:03:54.190Z,10.50
2023-05-01T10:06:28.693Z,10.40
2023-05-01T10:08:55.721Z,10.61
2023-05-01T10:11:23.600Z,10.75
2023-05-01T10:14:06.644Z,10.35
2023-05-01T10:16:34.982Z,10.71
2023-05-01T10:19:04.511Z,10.76
2023-05-01T10:21:33.000Z,10.89
2023-05-01T10:24:01.144Z,11.08
2023-05-01T10:26:28.616Z,11.25
2023-05-01T10:28:55.837Z,11.46
2023-05-01T10:31:22.472Z,11.55
2023-05-01T10:33:50.277Z,11.50
2023-05-01T10:36:22.717Z,11.48
2023-05-01T10:38:49.418Z,11.19
2023-05-01T10:41:19.014Z,11.05
2023-05-01T10:43:45.858Z,11.17
2023-05-01T10:46:27.906Z,11.06
2023-05-01T10:48:57.682Z,11.03
2023-05-01T10:51:28.282Z,11.05
2023-05-01T10:54:23.834Z,11.20
2023-05-01T10:56:50.753Z,11.77
2023-05-01T10:59:17.786Z,11.84
2023-05-01T11:01:45.695Z,11.52
2023-05-01T11:04:48.383Z,11.27
2023-05-01T11:07:18.343Z,11.57
2023-05-01T11:09:46.702Z,11.23
2023-05-01T11:12:14.287Z,11.37
2023-05-01T11:15:04.284Z,11.24
2023-05-01T11:17:47.204Z,11.34
2023-05-01T11:20:47.275Z,11.24
2023-05-01T11:23:19.501Z,11.01
2023-05-01T11:25:48.062Z,11.07
2023-05-01T11:28:20.504Z,11.18
2023-05-01T11:30:47.623Z,11.22
2023-05-01T11:33:21.588Z,11.24
2023-05-01T11:35:57.173Z,11.23
2023-05-01T11:38:25.251Z,11.26
2023-05-01T11:40:55.598Z,11.23
2023-05-01T11:43:23.190Z,11.24
2023-05-01T11:45:54.499Z,11.25
2023-05-01T11:48:22.503Z,11.25
2023-05-01T11:50:49.688Z,11.26
2023-05-01T11:53:16.615Z,11.26
2023-05-01T11:55:45.451Z,11.23
2023-05-01T11:58:12.753Z,11.26
2023-05-01T12:00:41.771Z,11.27
2023-05-01T12:03:10.422Z,11.26
2023-05-01T12:05:38.782Z,11.28
2023-05-01T12:08:11.347Z,11.32
2023-05-01T12:10:40.358Z,11.31
2023-05-01T12:13:09.607Z,11.29
2023-05-01T12:15:38.606Z,11.27
2023-05-01T12:18:06.130Z,11.28
2023-05-01T12:20:37.900Z,11.30
2023-05-01T12:23:08.325Z,11.38
2023-05-01T12:25:35.494Z,11.29
2023-05-01T12:28:04.365Z,11.32
2023-05-01T12:30:32.401Z,11.31
2023-05-01T12:32:59.211Z,11.31
2023-05-01T12:35:32.051Z,11.33
2023-05-01T12:37:59.603Z,11.35
2023-05-01T12:40:27.986Z,11.36
2023-05-01T12:42:57.262Z,11.38
2023-05-01T12:45:24.828Z,11.38
2023-05-01T12:47:53.044Z,11.36
2023-05-01T12:50:20.873Z,11.36
2023-05-01T12:52:48.469Z,11.37
2023-05-01T12:55:15.465Z,11.38
2023-05-01T12:57:52.775Z,11.38
2023-05-01T13:00:20.633Z,11.38
2023-05-01T13:02:47.821Z,11.39
2023-05-01T13:05:16.148Z,11.38
2023-05-01T13:07:49.900Z,11.39
2023-05-01T13:10:30.029Z,11.60
2023-05-01T13:12:56.738Z,11.44
2023-05-01T13:15:23.585Z,11.41
2023-05-01T13:17:50.664Z,11.45
2023-05-01T13:20:26.687Z,11.65
2023-05-01T13:22:53.552Z,11.67
2023-05-01T13:25:20.701Z,11.52
2023-05-01T13:27:49.586Z,11.43
2023-05-01T13:30:18.571Z,11.54
2023-05-01T13:32:46.518Z,11.74
2023-05-01T13:35:24.542Z,11.49
2023-05-01T13:37:51.370Z,11.39
2023-05-01T13:40:19.154Z,11.59
2023-05-01T13:42:46.180Z,11.42
2023-05-01T13:45:13.052Z,11.49
2023-05-01T13:47:40.943Z,11.27
2023-05-01T13:50:09.575Z,11.33
2023-05-01T13:52:43.053Z,11.35
2023-05-01T13:55:10.190Z,11.41
2023-05-01T13:57:37.736Z,11.48
2023-05-01T14:00:08.752Z,11.51
2023-05-01T14:02:42.682Z,11.53
2023-05-01T14:05:10.304Z,11.47
2023-05-01T14:07:46.291Z,11.29
2023-05-01T14:10:13.519Z,11.24
2023-05-01T14:12:40.758Z,11.49
2023-05-01T14:15:10.854Z,11.52
2023-05-01T14:17:38.726Z,11.54
2023-05-01T14:20:06.789Z,11.53
2023-05-01T14:22:40.690Z,11.51
2023-05-01T14:25:44.837Z,11.52
2023-05-01T14:28:14.796Z,11.27
2023-05-01T14:30:42.033Z,11.57
2023-05-01T14:33:11.219Z,11.48
2023-05-01T14:35:47.262Z,11.51
2023-05-01T14:38:16.442Z,11.53
2023-05-01T14:40:45.356Z,11.53
2023-05-01T14:43:14.441Z,11.44
2023-05-01T14:45:43.057Z,11.52
2023-05-01T14:48:10.631Z,11.51
2023-05-01T14:50:38.248Z,11.42
2023-05-01T14:53:04.890Z,11.52
2023-05-01T14:55:35.357Z,11.56
2023-05-01T14:58:03.618Z,11.54
2023-05-01T15:00:30.372Z,11.53
2023-05-01T15:02:58.538Z,11.56
2023-05-01T15:05:26.384Z,11.53
2023-05-01T15:07:54.165Z,11.57
2023-05-01T15:10:23.457Z,11.55
2023-05-01T15:12:50.111Z,11.56
2023-05-01T15:15:18.249Z,11.58
2023-05-01T15:17:45.469Z,11.54
2023-05-01T15:20:13.288Z,11.51
2023-05-01T15:22:41.078Z,11.52
2023-05-01T15:25:10.056Z,11.55
2023-05-01T15:27:37.052Z,11.55
2023-05-01T15:30:05.331Z,11.54
2023-05-01T15:32:33.471Z,11.55
2023-05-01T15:35:00.321Z,11.56
2023-05-01T15:37:27.222Z,11.51
2023-05-01T15:39:53.915Z,11.37
2023-05-01T15:42:20.768Z,11.44
2023-05-01T15:44:47.870Z,11.48
2023-05-01T15:47:14.919Z,11.53
2023-05-01T15:49:42.982Z,11.57
2023-05-01T15:52:09.631Z,11.46
2023-05-01T15:54:36.727Z,11.48
2023-05-01T15:57:03.558Z,11.11
2023-05-01T15:59:30.752Z,10.98
2023-05-01T16:01:57.502Z,11.35
2023-05-01T16:04:24.187Z,11.48
2023-05-01T16:06:52.551Z,11.54
2023-05-01T16:09:20.148Z,11.53
2023-05-01T16:11:46.913Z,11.55
2023-05-01T16:14:15.567Z,11.52
2023-05-01T16:16:42.870Z,11.54
2023-05-01T16:19:11.454Z,11.54
2023-05-01T16:21:38.438Z,11.46
2023-05-01T16:24:06.826Z,11.48
2023-05-01T16:26:33.868Z,11.53
2023-05-01T16:29:02.943Z,11.55
2023-05-01T16:31:34.536Z,11.55
2023-05-01T16:34:01.260Z,11.54
2023-05-01T16:36:28.429Z,11.54
2023-05-01T16:38:55.070Z,11.54
2023-05-01T16:41:24.979Z,11.54
2023-05-01T16:43:51.712Z,11.54
2023-05-01T16:46:18.422Z,11.54
2023-05-01T16:48:45.073Z,11.54
2023-05-01T16:51:11.899Z,11.56
2023-05-01T16:53:38.665Z,11.55
2023-05-01T16:56:06.115Z,11.55
2023-05-01T16:58:34.068Z,11.57
2023-05-01T17:01:00.917Z,11.06
2023-05-01T17:03:27.794Z,11.18
2023-05-01T17:05:55.565Z,11.47
2023-05-01T17:08:22.165Z,11.54
2023-05-01T17:10:48.826Z,11.53
2023-05-01T17:13:15.722Z,11.54
2023-05-01T17:15:43.800Z,11.54
2023-05-01T17:18:10.466Z,11.56
2023-05-01T17:20:37.094Z,11.19
2023-05-01T17:23:03.935Z,10.88
2023-05-01T17:25:30.730Z,10.90
2023-05-01T17:27:57.879Z,11.07
2023-05-01T17:30:24.623Z,11.40
2023-05-01T17:32:52.876Z,11.49
2023-05-01T17:35:20.000Z,11.50
2023-05-01T17:37:46.600Z,11.54
2023-05-01T17:40:13.655Z,11.53
2023-05-01T17:42:40.443Z,11.53
2023-05-01T17:45:10.228Z,11.55
2023-05-01T17:47:42.685Z,11.53
2023-05-01T17:50:13.101Z,11.51
2023-05-01T17:52:40.691Z,11.55
2023-05-01T17:55:07.933Z,11.53
2023-05-01T17:57:34.602Z,11.51
2023-05-01T18:00:01.826Z,11.51
2023-05-01T18:02:29.547Z,11.55
2023-05-01T18:04:56.887Z,11.53
2023-05-01T18:07:25.156Z,11.52
2023-05-01T18:09:51.815Z,11.53
2023-05-01T18:12:19.101Z,11.55
2023-05-01T18:14:46.194Z,11.51
2023-05-01T18:17:12.876Z,11.54
2023-05-01T18:19:39.575Z,11.50
2023-05-01T18:22:06.382Z,11.51
2023-05-01T18:24:34.474Z,11.53
2023-05-01T18:27:01.167Z,11.52
2023-05-01T18:29:27.832Z,11.55
2023-05-01T18:31:54.603Z,11.58
2023-05-01T18:34:21.541Z,11.53
2023-05-01T18:36:51.943Z,11.51
2023-05-01T18:39:20.276Z,11.50
2023-05-01T18:41:48.549Z,11.51
2023-05-01T18:44:15.193Z,11.55
2023-05-01T18:46:42.030Z,11.14
2023-05-01T18:49:08.796Z,11.42
2023-05-01T18:51:36.027Z,11.46
2023-05-01T18:54:04.846Z,11.48
2023-05-01T18:56:31.725Z,11.52
2023-05-01T18:58:59.725Z,11.50
2023-05-01T19:01:26.412Z,11.50
2023-05-01T19:03:58.717Z,11.51
2023-05-01T19:06:25.780Z,11.52
2023-05-01T19:08:52.652Z,11.51
2023-05-01T19:11:19.611Z,11.54
2023-05-01T19:13:46.723Z,11.52
2023-05-01T19:16:14.795Z,11.53
2023-05-01T19:18:41.670Z,10.86
2023-05-01T19:21:08.376Z,10.71
2023-05-01T19:23:37.382Z,11.29
2023-05-01T19:26:06.263Z,11.41
2023-05-01T19:28:33.018Z,11.46
2023-05-01T19:30:59.816Z,11.47
2023-05-01T19:33:27.837Z,11.52
2023-05-01T19:35:54.412Z,11.53
2023-05-01T19:38:21.045Z,11.52
2023-05-01T19:40:47.743Z,11.50
2023-05-01T19:43:14.387Z,11.51
2023-05-01T19:45:41.087Z,11.54
2023-05-01T19:48:07.903Z,11.53
2023-05-01T19:50:36.147Z,11.54
2023-05-01T19:53:03.264Z,11.50
2023-05-01T19:55:29.867Z,11.47
2023-05-01T19:57:56.785Z,11.49
2023-05-01T20:00:23.470Z,11.51
2023-05-01T20:02:50.394Z,11.47
2023-05-01T20:05:17.234Z,11.47
2023-05-01T20:07:45.348Z,11.48
2023-05-01T20:10:12.046Z,11.50
2023-05-01T20:12:38.778Z,11.49
2023-05-01T20:15:06.252Z,11.45
2023-05-01T20:17:32.944Z,11.48
2023-05-01T20:19:59.949Z,11.48
2023-05-01T20:22:26.701Z,11.47
2023-05-01T20:24:54.639Z,11.46
2023-05-01T20:27:21.422Z,11.51
2023-05-01T20:29:48.331Z,11.53
2023-05-01T20:32:15.013Z,11.50
2023-05-01T20:34:41.609Z,11.47
2023-05-01T20:37:08.157Z,11.47
2023-05-01T20:39:34.730Z,11.53
2023-05-01T20:42:02.725Z,11.39
2023-05-01T20:44:29.416Z,11.53
2023-05-01T20:46:56.187Z,11.50
2023-05-01T20:49:22.875Z,11.48
2023-05-01T20:51:49.487Z,11.53
2023-05-01T20:54:16.078Z,11.51
2023-05-01T20:56:42.755Z,11.46
2023-05-01T20:59:10.794Z,11.46
2023-05-01T21:01:37.414Z,11.30
2023-05-01T21:04:04.642Z,11.17
2023-05-01T21:06:32.042Z,11.35
2023-05-01T21:08:59.642Z,11.43
2023-05-01T21:11:26.376Z,11.41
2023-05-01T21:13:53.000Z,11.44
2023-05-01T21:16:21.274Z,11.48
2023-05-01T21:18:48.587Z,11.47
2023-05-01T21:21:16.134Z,11.47
2023-05-01T21:23:47.177Z,11.47
2023-05-01T21:26:14.213Z,11.25
2023-05-01T21:28:41.000Z,11.38
2023-05-01T21:31:10.269Z,11.41
2023-05-01T21:33:38.973Z,11.38
2023-05-01T21:36:06.555Z,11.39
2023-05-01T21:38:34.854Z,11.39
2023-05-01T21:41:01.592Z,11.39
2023-05-01T21:43:31.114Z,11.38
2023-05-01T21:45:57.964Z,11.39
2023-05-01T21:48:24.671Z,11.42
2023-05-01T21:50:52.761Z,11.26
2023-05-01T21:53:19.513Z,9.88
2023-05-01T21:55:48.876Z,11.04
2023-05-01T21:58:15.651Z,11.23
2023-05-01T22:00:42.692Z,11.32
2023-05-01T22:03:10.531Z,11.33
2023-05-01T22:05:40.928Z,11.27
2023-05-01T22:08:09.139Z,11.36
2023-05-01T22:10:36.428Z,11.41
2023-05-01T22:13:03.759Z,11.32
2023-05-01T22:15:30.354Z,11.33
2023-05-01T22:17:57.078Z,11.33
2023-05-01T22:20:23.784Z,11.34
2023-05-01T22:22:50.436Z,11.35
2023-05-01T22:25:18.510Z,11.36
2023-05-01T22:27:45.111Z,11.38
2023-05-01T22:30:12.491Z,11.33
2023-05-01T22:32:39.184Z,11.33
2023-05-01T22:35:08.375Z,11.33
2023-05-01T22:37:34.989Z,11.37
2023-05-01T22:40:01.904Z,11.38
2023-05-01T22:42:30.109Z,11.36
2023-05-01T22:44:56.709Z,11.20
2023-05-01T22:47:23.323Z,11.30
2023-05-01T22:49:49.935Z,11.26
2023-05-01T22:52:16.611Z,11.33
2023-05-01T22:54:43.277Z,11.34
2023-05-01T22:57:10.334Z,11.37
2023-05-01T22:59:40.296Z,10.63
2023-05-01T23:02:06.982Z,10.43
2023-05-01T23:04:33.626Z,9.41
2023-05-01T23:07:00.570Z,10.70
2023-05-01T23:09:29.796Z,11.09
2023-05-01T23:11:56.397Z,10.54
2023-05-01T23:14:23.112Z,11.09
2023-05-01T23:16:51.482Z,11.17
2023-05-01T23:19:20.264Z,11.19
2023-05-01T23:21:47.176Z,11.20
2023-05-01T23:24:17.140Z,11.19
2023-05-01T23:26:44.268Z,11.23
2023-05-01T23:29:11.623Z,11.25
2023-05-01T23:31:43.972Z,11.21
2023-05-01T23:34:17.529Z,11.27
2023-05-01T23:36:46.155Z,11.29
2023-05-01T23:39:12.948Z,10.48
2023-05-01T23:41:39.994Z,10.69
2023-05-01T23:44:07.481Z,11.09
2023-05-01T23:46:34.518Z,11.14
2023-05-01T23:49:01.250Z,11.16
2023-05-01T23:51:29.741Z,11.24
2023-05-01T23:53:56.319Z,11.21
2023-05-01T23:56:22.894Z,11.16
2023-05-01T23:58:49.499Z,11.16
